Time;durP1;ratioP1;P1;durP2;ratioP2;P2;SDS_P1;SDS_P2;PMS_P1;PMS_P2;Temp;Humidity;BMP_temperature;BMP_pressure;BME280_temperature;BME280_humidity;BME280_pressure;Samples;Min_cycle;Max_cycle;Signal;HPM_P1;HPM_P2
2024/03/15 00:04:55;;;;;;;9.17;7.57;;;12.20;99.90;;;;;;12574971;28;20124;-80
2024/03/15 00:10:57;;;;;;;9.75;7.63;;;;;;;;;;12577910;28;20052;-79
2024/03/15 00:16:59;;;;;;;11.50;8.02;;;12.00;99.90;;;;;;12596604;28;20194;-78
2024/03/15 00:23:01;;;;;;;9.07;7.57;;;12.00;99.90;;;;;;12582913;28;20045;-78
2024/03/15 00:29:03;;;;;;;9.43;7.80;;;11.90;99.90;;;;;;12578875;28;20052;-78
2024/03/15 00:35:06;;;;;;;9.90;7.78;;;11.90;99.90;;;;;;12585770;28;20048;-78
2024/03/15 00:41:08;;;;;;;9.00;7.43;;;12.00;99.90;;;;;;12586205;28;20047;-79
2024/03/15 00:47:09;;;;;;;10.32;7.35;;;11.90;99.90;;;;;;12589032;28;20045;-79
2024/03/15 00:53:12;;;;;;;13.13;7.43;;;11.90;99.90;;;;;;12581769;28;20052;-79
2024/03/15 00:59:14;;;;;;;10.80;8.35;;;11.90;99.90;;;;;;12606589;28;20053;-79
2024/03/15 01:05:18;;;;;;;9.75;8.20;;;11.90;99.90;;;;;;12606055;28;20527;-79
2024/03/15 01:11:20;;;;;;;9.47;7.17;;;11.90;99.90;;;;;;12591239;28;20044;-78
2024/03/15 01:17:22;;;;;;;9.10;7.60;;;11.80;99.90;;;;;;12583312;28;20063;-79
2024/03/15 01:23:24;;;;;;;9.65;7.80;;;11.80;99.90;;;;;;12563880;28;20057;-81
2024/03/15 01:29:28;;;;;;;7.53;6.53;;;11.80;99.90;;;;;;12590876;28;20139;-81
2024/03/15 01:35:32;;;;;;;9.40;7.57;;;11.90;99.90;;;;;;12564758;28;20052;-80
2024/03/15 01:41:34;;;;;;;8.90;7.13;;;12.00;99.90;;;;;;12568585;28;20052;-79
2024/03/15 01:47:37;;;;;;;8.13;6.72;;;12.00;99.90;;;;;;12581639;28;20125;-81
2024/03/15 01:53:39;;;;;;;9.63;6.85;;;12.00;99.90;;;;;;12555917;28;20049;-80
2024/03/15 01:59:42;;;;;;;9.60;6.80;;;12.00;99.90;;;;;;12559976;28;20048;-79
2024/03/15 02:05:43;;;;;;;8.95;6.95;;;11.90;99.90;;;;;;12568181;28;20420;-79
2024/03/15 02:11:47;;;;;;;9.40;6.88;;;12.00;99.90;;;;;;12568537;28;20074;-79
2024/03/15 02:17:49;;;;;;;7.38;6.55;;;11.80;99.90;;;;;;12570518;28;20190;-79
2024/03/15 02:23:51;;;;;;;8.43;6.45;;;11.70;99.90;;;;;;12578758;28;20057;-80
2024/03/15 02:29:53;;;;;;;9.63;6.35;;;11.70;99.90;;;;;;12575435;28;20887;-80
2024/03/15 02:35:55;;;;;;;10.38;6.70;;;11.70;99.90;;;;;;12578947;28;20048;-78
2024/03/15 02:41:57;;;;;;;8.35;6.05;;;11.70;99.90;;;;;;12594431;28;20052;-77
2024/03/15 02:47:59;;;;;;;7.68;6.15;;;11.60;99.90;;;;;;12581275;28;20040;-77
2024/03/15 02:54:01;;;;;;;7.60;5.68;;;11.60;99.90;;;;;;12592348;28;20145;-77
2024/03/15 03:00:03;;;;;;;9.30;6.45;;;11.60;99.90;;;;;;12590125;28;20087;-78
2024/03/15 03:06:10;;;;;;;8.02;6.13;;;11.60;99.90;;;;;;12574926;28;20048;-79
2024/03/15 03:12:13;;;;;;;8.80;5.95;;;11.50;99.90;;;;;;12571144;28;20181;-80
2024/03/15 03:18:15;;;;;;;7.63;5.95;;;11.40;99.90;;;;;;12591167;28;20606;-81
2024/03/15 03:24:17;;;;;;;8.07;5.40;;;11.30;99.90;;;;;;12548359;28;20060;-81
2024/03/15 03:30:19;;;;;;;8.35;5.88;;;11.40;99.90;;;;;;12566812;28;20070;-81
2024/03/15 03:36:21;;;;;;;7.60;5.70;;;11.30;99.90;;;;;;12569381;28;20091;-80
2024/03/15 03:42:25;;;;;;;6.60;5.60;;;11.20;99.90;;;;;;12562054;28;20423;-79
2024/03/15 03:48:29;;;;;;;6.57;5.30;;;11.10;99.90;;;;;;12581764;28;20135;-79
2024/03/15 03:54:31;;;;;;;7.22;5.40;;;11.10;99.90;;;;;;12567191;28;20132;-80
2024/03/15 04:00:34;;;;;;;6.60;4.90;;;11.10;99.90;;;;;;12574302;28;20053;-80
2024/03/15 04:06:36;;;;;;;7.88;5.50;;;11.20;99.90;;;;;;12580850;28;20485;-80
2024/03/15 04:12:40;;;;;;;7.43;4.90;;;11.30;99.90;;;;;;12585702;28;20037;-78
2024/03/15 04:18:42;;;;;;;8.80;5.00;;;11.30;99.90;;;;;;12589550;28;20048;-79
2024/03/15 04:24:44;;;;;;;7.97;5.45;;;11.30;99.90;;;;;;12585313;28;20059;-79
2024/03/15 04:30:46;;;;;;;6.45;4.70;;;11.40;99.90;;;;;;12578030;28;20052;-79
2024/03/15 04:36:48;;;;;;;7.25;5.00;;;11.40;99.90;;;;;;12587085;28;20040;-79
2024/03/15 04:42:51;;;;;;;7.20;4.97;;;11.40;99.90;;;;;;12592959;28;20048;-78
2024/03/15 04:48:53;;;;;;;6.00;4.70;;;11.50;99.90;;;;;;12577261;28;20090;-79
2024/03/15 04:54:54;;;;;;;7.60;4.97;;;11.60;99.90;;;;;;12568382;28;20041;-81
2024/03/15 05:00:56;;;;;;;5.93;4.50;;;11.60;99.90;;;;;;12559487;28;20542;-80
2024/03/15 05:06:58;;;;;;;6.15;4.45;;;11.60;99.90;;;;;;12562222;28;20056;-81
2024/03/15 05:13:00;;;;;;;6.00;4.68;;;11.60;99.90;;;;;;12584027;28;20109;-81
2024/03/15 05:19:02;;;;;;;6.57;4.80;;;11.60;99.90;;;;;;12563871;28;20056;-81
2024/03/15 05:25:09;;;;;;;8.52;4.43;;;11.60;99.90;;;;;;12569818;28;20082;-77
2024/03/15 05:31:23;;;;;;;6.20;4.15;;;11.60;99.90;;;;;;12566463;28;20040;-79
2024/03/15 05:37:26;;;;;;;6.00;4.70;;;11.60;99.90;;;;;;12573939;28;20057;-78
2024/03/15 05:43:28;;;;;;;8.00;4.35;;;11.60;99.90;;;;;;12589280;28;20301;-79
2024/03/15 05:49:30;;;;;;;5.70;3.53;;;11.60;99.90;;;;;;12588334;28;20519;-79
2024/03/15 05:55:33;;;;;;;5.90;4.10;;;11.60;99.90;;;;;;12587820;28;20405;-78
2024/03/15 06:01:34;;;;;;;5.72;4.68;;;11.80;99.90;;;;;;12577440;28;20413;-79
2024/03/15 06:07:36;;;;;;;6.45;4.38;;;11.80;99.90;;;;;;12577729;28;20060;-81
2024/03/15 06:13:38;;;;;;;5.05;3.60;;;11.80;99.90;;;;;;12589583;28;20044;-81
2024/03/15 06:19:40;;;;;;;5.30;4.45;;;11.80;99.90;;;;;;12575333;28;20503;-80
2024/03/15 06:25:44;;;;;;;4.90;3.90;;;11.80;99.90;;;;;;12574089;28;20101;-80
2024/03/15 06:31:48;;;;;;;7.97;4.17;;;11.80;99.90;;;;;;12588721;28;20040;-81
2024/03/15 06:37:53;;;;;;;4.57;4.03;;;11.80;99.90;;;;;;12581500;28;20528;-79
2024/03/15 06:44:00;;;;;;;4.45;4.00;;;11.90;99.90;;;;;;12568957;28;20063;-79
2024/03/15 06:56:16;;;;;;;5.50;4.20;;;11.90;99.90;;;;;;12606775;28;20404;-79
2024/03/15 07:02:18;;;;;;;5.82;4.50;;;11.90;99.90;;;;;;12579042;28;20405;-79
2024/03/15 07:08:20;;;;;;;6.20;4.35;;;11.90;99.90;;;;;;12608803;28;20040;-79
2024/03/15 07:14:22;;;;;;;7.07;3.95;;;12.00;99.90;;;;;;12583534;28;20044;-79
2024/03/15 07:20:24;;;;;;;5.25;4.15;;;12.10;99.90;;;;;;12566619;28;20067;-78
2024/03/15 07:26:26;;;;;;;6.03;4.63;;;12.30;99.90;;;;;;12575688;28;20477;-78
2024/03/15 07:32:27;;;;;;;5.90;4.60;;;12.30;99.90;;;;;;12595776;28;20143;-78
2024/03/15 07:38:30;;;;;;;4.75;4.20;;;12.40;99.90;;;;;;12566090;28;20052;-78
2024/03/15 07:44:32;;;;;;;7.82;5.07;;;12.60;99.90;;;;;;12582373;28;20047;-81
2024/03/15 07:50:36;;;;;;;5.55;4.78;;;12.80;99.90;;;;;;12584535;28;20044;-81
2024/03/15 07:56:43;;;;;;;5.15;4.65;;;12.90;99.90;;;;;;12567251;28;20045;-81
2024/03/15 08:02:45;;;;;;;5.93;4.85;;;12.80;99.90;;;;;;12569821;28;20063;-80
2024/03/15 08:08:47;;;;;;;6.10;4.28;;;12.80;99.90;;;;;;12567669;28;20056;-82
2024/03/15 08:14:49;;;;;;;6.55;4.30;;;12.70;99.90;;;;;;12573998;28;20059;-81
2024/03/15 08:20:51;;;;;;;6.38;4.75;;;12.70;99.90;;;;;;12578195;28;20538;-82
2024/03/15 08:26:53;;;;;;;5.90;4.30;;;12.60;99.90;;;;;;12574928;28;20045;-80
2024/03/15 08:32:56;;;;;;;6.30;3.97;;;12.30;99.90;;;;;;12564651;28;20453;-79
2024/03/15 08:38:58;;;;;;;9.00;4.47;;;12.20;99.90;;;;;;12590690;28;20135;-80
2024/03/15 08:45:00;;;;;;;6.35;4.43;;;12.40;99.90;;;;;;12591138;28;20646;-79
2024/03/15 08:51:03;;;;;;;5.63;4.70;;;12.60;99.90;;;;;;12587240;28;20048;-79
2024/03/15 08:57:06;;;;;;;5.90;4.78;;;12.60;99.90;;;;;;12593473;28;20033;-80
2024/03/15 09:03:09;;;;;;;5.28;4.53;;;12.60;99.90;;;;;;12628068;28;20074;-80
2024/03/15 09:09:13;;;;;;;7.18;4.78;;;12.60;99.90;;;;;;12626242;28;20075;-81
2024/03/15 09:15:16;;;;;;;5.60;4.50;;;12.40;99.90;;;;;;12613279;28;20051;-80
2024/03/15 09:21:20;;;;;;;8.82;4.88;;;12.60;99.90;;;;;;12597301;28;20053;-82
2024/03/15 09:27:22;;;;;;;7.18;4.88;;;12.80;99.90;;;;;;12582420;28;20154;-79
2024/03/15 09:33:27;;;;;;;7.05;5.00;;;13.00;99.90;;;;;;12574374;28;20045;-79
2024/03/15 09:39:30;;;;;;;6.70;4.97;;;13.20;99.90;;;;;;12571995;28;20044;-79
2024/03/15 09:45:33;;;;;;;6.20;5.43;;;13.30;99.90;;;;;;12587794;28;20503;-79
2024/03/15 09:51:36;;;;;;;6.57;5.83;;;13.30;99.90;;;;;;12589273;28;20049;-80
2024/03/15 09:57:38;;;;;;;7.60;5.75;;;13.30;99.90;;;;;;12580763;28;20049;-82
2024/03/15 10:03:42;;;;;;;7.18;6.45;;;13.20;99.90;;;;;;12564040;28;20056;-82
2024/03/15 10:09:47;;;;;;;7.55;5.85;;;13.40;99.90;;;;;;12577349;28;20048;-81
2024/03/15 10:15:50;;;;;;;9.43;8.52;;;13.70;99.90;;;;;;12564862;28;20749;-82
2024/03/15 10:21:52;;;;;;;8.23;7.43;;;13.80;99.90;;;;;;12569145;28;20420;-82
2024/03/15 10:27:55;;;;;;;9.30;8.50;;;14.40;99.90;;;;;;12564499;28;20060;-81
2024/03/15 10:33:57;;;;;;;10.23;8.32;;;14.40;99.90;;;;;;12565925;28;20457;-82
2024/03/15 10:39:59;;;;;;;11.15;8.85;;;14.50;99.90;;;;;;12564293;28;20040;-80
2024/03/15 10:46:02;;;;;;;9.00;8.20;;;14.60;99.90;;;;;;12577022;28;20072;-80
2024/03/15 10:52:04;;;;;;;10.80;9.70;;;14.70;99.90;;;;;;12607249;28;20067;-81
2024/03/15 10:58:08;;;;;;;10.48;9.20;;;14.80;99.90;;;;;;12603014;28;20056;-80
2024/03/15 11:04:12;;;;;;;9.70;8.68;;;14.90;99.90;;;;;;12580616;28;20049;-80
2024/03/15 11:10:21;;;;;;;8.63;7.82;;;15.10;99.90;;;;;;12589187;28;20059;-80
2024/03/15 11:16:24;;;;;;;9.10;8.20;;;15.10;99.90;;;;;;12599956;28;20118;-80
2024/03/15 11:22:26;;;;;;;7.97;7.18;;;15.20;99.90;;;;;;12601392;28;20056;-80
2024/03/15 11:28:29;;;;;;;8.80;8.02;;;15.70;99.90;;;;;;12603946;28;20055;-81
2024/03/15 11:34:31;;;;;;;8.77;7.95;;;15.40;99.90;;;;;;12599882;28;20056;-81
2024/03/15 11:40:33;;;;;;;10.98;7.30;;;15.30;99.90;;;;;;12596153;28;20064;-81
2024/03/15 11:46:35;;;;;;;7.90;7.18;;;15.20;99.90;;;;;;12585711;28;20043;-82
2024/03/15 11:52:36;;;;;;;10.18;6.93;;;15.00;99.90;;;;;;12584299;28;20044;-82
2024/03/15 11:58:42;;;;;;;6.72;6.13;;;14.60;99.90;;;;;;12557829;28;20056;-82
2024/03/15 12:04:45;;;;;;;7.07;6.38;;;14.80;99.90;;;;;;12518183;28;20052;-81
2024/03/15 12:10:49;;;;;;;7.93;6.75;;;15.30;99.90;;;;;;12542516;28;20094;-82
2024/03/15 12:16:51;;;;;;;7.80;7.20;;;16.00;90.60;;;;;;12532811;28;20355;-82
2024/03/15 12:22:54;;;;;;;8.18;7.55;;;15.70;99.90;;;;;;12522190;28;20079;-81
2024/03/15 12:28:56;;;;;;;7.93;7.30;;;15.50;94.90;;;;;;12541843;28;20390;-81
2024/03/15 12:34:57;;;;;;;8.75;7.45;;;15.40;99.90;;;;;;12530696;28;20409;-81
2024/03/15 12:40:59;;;;;;;7.38;6.65;;;15.30;99.90;;;;;;12546011;28;20500;-80
2024/03/15 12:47:01;;;;;;;7.70;6.78;;;15.20;99.90;;;;;;12535570;28;20048;-80
2024/03/15 12:53:05;;;;;;;8.23;7.53;;;15.40;99.90;;;;;;12526417;28;20382;-80
2024/03/15 12:59:07;;;;;;;8.40;7.57;;;15.30;99.90;;;;;;12536268;28;20083;-82
2024/03/15 13:05:12;;;;;;;7.35;6.75;;;15.30;99.90;;;;;;12532596;28;20045;-82
2024/03/15 13:11:14;;;;;;;6.88;6.28;;;15.10;99.90;;;;;;12519000;28;20087;-82
2024/03/15 13:17:16;;;;;;;7.07;6.43;;;15.10;99.90;;;;;;12521383;28;20063;-82
2024/03/15 13:23:18;;;;;;;8.35;7.00;;;15.00;99.90;;;;;;12541944;28;20195;-80
2024/03/15 13:29:21;;;;;;;7.13;6.43;;;15.00;99.90;;;;;;12547614;28;20056;-81
2024/03/15 13:35:23;;;;;;;7.18;6.47;;;14.90;99.90;;;;;;12517986;28;20405;-81
2024/03/15 13:41:27;;;;;;;6.97;6.05;;;14.80;99.90;;;;;;12543355;28;20107;-81
2024/03/15 13:47:29;;;;;;;6.65;6.05;;;14.60;99.90;;;;;;12530695;28;20493;-79
2024/03/15 13:53:32;;;;;;;6.10;5.53;;;14.50;99.90;;;;;;12550251;28;20049;-79
2024/03/15 13:59:34;;;;;;;6.07;5.27;;;14.50;99.90;;;;;;12529310;28;20060;-78
2024/03/15 14:05:37;;;;;;;5.55;4.90;;;14.40;99.90;;;;;;12520912;28;20520;-78
2024/03/15 14:11:42;;;;;;;6.45;4.97;;;14.70;99.90;;;;;;12548855;28;20069;-79
2024/03/15 14:17:47;;;;;;;6.97;5.90;;;15.20;99.90;;;;;;12555159;28;20044;-80
2024/03/15 14:23:50;;;;;;;5.40;4.90;;;15.10;99.90;;;;;;12539130;28;20045;-80
2024/03/15 14:29:51;;;;;;;6.38;5.18;;;15.10;99.90;;;;;;12529606;28;20049;-79
2024/03/15 14:35:54;;;;;;;5.75;5.25;;;15.50;1.00;;;;;;12557047;28;20056;-81
2024/03/15 14:41:56;;;;;;;6.30;5.70;;;15.80;1.00;;;;;;12545572;28;20067;-79
2024/03/15 14:47:59;;;;;;;6.15;5.63;;;15.60;1.00;;;;;;12562788;28;20056;-78
2024/03/15 14:54:13;;;;;;;7.00;5.47;;;15.70;14.90;;;;;;12559308;28;20041;-80
2024/03/15 15:00:15;;;;;;;6.30;5.68;;;15.70;1.00;;;;;;12563338;28;20068;-81
2024/03/15 15:06:17;;;;;;;5.35;4.93;;;15.50;1.00;;;;;;12573230;28;20511;-81
2024/03/15 15:12:19;;;;;;;5.15;4.75;;;15.40;1.00;;;;;;12587456;28;20079;-78
2024/03/15 15:18:21;;;;;;;5.40;4.85;;;15.30;1.00;;;;;;12582104;28;20445;-78
2024/03/15 15:24:23;;;;;;;44.70;42.10;;;15.10;94.50;;;;;;12572954;28;20068;-79
2024/03/15 15:30:26;;;;;;;21.17;19.67;;;14.10;99.90;;;;;;12579203;28;20052;-79
2024/03/15 15:36:29;;;;;;;13.17;12.13;;;13.50;99.90;;;;;;12583703;28;20509;-78
2024/03/15 15:42:31;;;;;;;9.73;6.72;;;13.20;99.90;;;;;;12573754;28;20303;-79
2024/03/15 15:48:34;;;;;;;6.55;5.35;;;13.00;99.90;;;;;;12590510;28;20049;-78
2024/03/15 15:54:36;;;;;;;6.25;5.65;;;12.80;99.90;;;;;;12582481;28;20055;-78
2024/03/15 16:00:38;;;;;;;5.40;4.35;;;12.90;99.90;;;;;;12560196;28;20053;-79
2024/03/15 16:06:40;;;;;;;4.72;3.78;;;12.70;99.90;;;;;;12578063;28;20461;-79
2024/03/15 16:12:42;;;;;;;4.00;2.92;;;12.80;99.90;;;;;;12577740;28;20048;-79
2024/03/15 16:18:45;;;;;;;3.42;2.20;;;12.60;99.90;;;;;;12587846;28;20048;-81
2024/03/15 16:24:47;;;;;;;2.97;2.22;;;12.70;99.90;;;;;;12569032;28;20052;-81
2024/03/15 16:30:50;;;;;;;3.45;2.33;;;12.60;99.90;;;;;;12566579;28;21450;-84
2024/03/15 16:36:52;;;;;;;5.03;2.53;;;12.50;99.90;;;;;;12564589;28;20052;-84
2024/03/15 16:42:57;;;;;;;3.03;2.35;;;12.40;99.90;;;;;;12565929;28;20068;-84
2024/03/15 16:49:01;;;;;;;3.67;1.90;;;12.40;99.90;;;;;;12555308;28;20048;-85
2024/03/15 16:55:04;;;;;;;3.72;1.85;;;12.60;99.90;;;;;;12560987;28;20044;-84
2024/03/15 17:01:07;;;;;;;6.15;1.92;;;12.60;99.90;;;;;;12569015;28;20060;-85
2024/03/15 17:07:09;;;;;;;3.75;1.70;;;12.60;99.90;;;;;;12546196;28;20060;-87
2024/03/15 17:13:12;;;;;;;2.05;1.30;;;11.90;99.90;;;;;;12571108;28;20075;-88
2024/03/15 17:19:13;;;;;;;1.20;1.05;;;11.60;99.90;;;;;;12563477;28;20075;-86
2024/03/15 17:25:15;;;;;;;2.03;1.08;;;11.40;99.90;;;;;;12572423;28;20052;-87
2024/03/15 17:31:17;;;;;;;2.95;1.13;;;11.30;99.90;;;;;;12587167;28;20044;-80
2024/03/15 17:37:20;;;;;;;2.88;1.13;;;11.20;99.90;;;;;;12578092;28;20111;-80
2024/03/15 17:43:26;;;;;;;1.67;1.13;;;11.20;99.90;;;;;;12564164;28;20056;-87
2024/03/15 17:49:29;;;;;;;2.33;1.27;;;11.10;99.90;;;;;;12566988;28;20044;-85
2024/03/15 17:55:31;;;;;;;1.70;1.25;;;11.10;99.90;;;;;;12570762;28;20048;-83
2024/03/15 18:01:33;;;;;;;3.20;1.50;;;11.10;99.90;;;;;;12541716;28;20214;-86
2024/03/15 18:07:36;;;;;;;2.05;1.60;;;11.10;99.90;;;;;;12539154;28;20049;-86
2024/03/15 18:13:38;;;;;;;2.10;1.48;;;11.10;99.90;;;;;;12526329;28;20041;-85
2024/03/15 18:19:40;;;;;;;1.88;1.60;;;11.10;99.90;;;;;;12540565;28;20049;-84
2024/03/15 18:25:41;;;;;;;3.65;1.60;;;11.10;99.90;;;;;;12529375;28;20060;-81
2024/03/15 18:31:43;;;;;;;2.60;1.67;;;11.10;99.90;;;;;;12522159;28;20068;-82
2024/03/15 18:37:45;;;;;;;3.97;1.70;;;11.00;99.90;;;;;;12544550;28;20044;-86
2024/03/15 18:43:47;;;;;;;2.72;1.70;;;11.10;99.90;;;;;;12545796;28;20060;-81
2024/03/15 18:49:51;;;;;;;1.90;1.70;;;11.00;99.90;;;;;;12543467;28;20045;-85
2024/03/15 18:55:54;;;;;;;2.75;1.88;;;11.00;99.90;;;;;;12550279;28;20041;-81
2024/03/15 19:02:01;;;;;;;3.15;2.08;;;11.00;99.90;;;;;;12572633;28;20472;-86
2024/03/15 19:08:03;;;;;;;3.38;1.90;;;11.00;99.90;;;;;;12578222;28;20083;-85
2024/03/15 19:14:05;;;;;;;3.50;2.28;;;11.00;99.90;;;;;;12589967;28;20037;-86
2024/03/15 19:20:13;;;;;;;4.57;2.28;;;11.00;99.90;;;;;;12563999;28;20055;-87
2024/03/15 19:26:15;;;;;;;3.13;2.20;;;11.00;99.90;;;;;;12590018;28;20043;-85
2024/03/15 19:32:17;;;;;;;3.20;2.25;;;10.90;99.90;;;;;;12570051;28;20059;-85
2024/03/15 19:38:19;;;;;;;4.15;2.50;;;11.00;99.90;;;;;;12576778;28;20186;-87
2024/03/15 19:44:21;;;;;;;6.65;3.88;;;10.90;99.90;;;;;;12561970;28;20091;-81
2024/03/15 19:50:23;;;;;;;5.60;4.55;;;11.00;99.90;;;;;;12585683;28;20076;-86
2024/03/15 19:56:25;;;;;;;7.68;6.63;;;11.00;99.90;;;;;;12549115;28;20044;-85
2024/03/15 20:02:27;;;;;;;10.25;6.88;;;11.10;99.90;;;;;;12563836;28;20053;-81
2024/03/15 20:08:30;;;;;;;7.53;6.07;;;11.10;99.90;;;;;;12581937;28;20052;-81
2024/03/15 20:14:32;;;;;;;8.20;5.95;;;11.10;99.90;;;;;;12571191;28;20109;-81
2024/03/15 20:20:34;;;;;;;8.82;5.70;;;11.10;99.90;;;;;;12566102;28;20091;-81
2024/03/15 20:26:36;;;;;;;6.47;5.20;;;11.10;99.90;;;;;;12551692;28;20420;-81
2024/03/15 20:32:38;;;;;;;8.07;5.90;;;11.10;99.90;;;;;;12587246;28;20162;-80
2024/03/15 20:38:40;;;;;;;7.40;5.18;;;11.00;99.90;;;;;;12571209;28;20070;-81
2024/03/15 20:44:42;;;;;;;7.07;5.50;;;11.00;99.90;;;;;;12563317;28;20067;-81
2024/03/15 20:50:44;;;;;;;8.25;5.40;;;11.00;99.90;;;;;;12586686;28;20056;-80
2024/03/15 20:56:46;;;;;;;6.38;5.68;;;11.00;99.90;;;;;;12592981;28;20505;-80
2024/03/15 21:02:48;;;;;;;7.18;5.45;;;10.90;99.90;;;;;;12579740;28;20126;-81
2024/03/15 21:08:50;;;;;;;7.43;6.13;;;11.00;99.90;;;;;;12566629;28;20048;-82
2024/03/15 21:14:52;;;;;;;8.35;5.57;;;11.00;99.90;;;;;;12573247;28;20048;-83
2024/03/15 21:20:54;;;;;;;7.55;5.07;;;10.90;99.90;;;;;;12595557;28;20218;-83
2024/03/15 21:26:57;;;;;;;6.57;5.18;;;10.90;99.90;;;;;;12569864;28;20055;-79
2024/03/15 21:33:00;;;;;;;6.85;4.97;;;10.90;99.90;;;;;;12575144;28;20044;-80
2024/03/15 21:39:04;;;;;;;6.78;5.38;;;10.80;99.90;;;;;;12573546;28;20041;-79
2024/03/15 21:45:15;;;;;;;6.95;5.63;;;10.70;99.90;;;;;;12567179;28;20041;-79
2024/03/15 21:51:21;;;;;;;5.55;4.63;;;10.60;99.90;;;;;;12589782;28;20044;-79
2024/03/15 21:57:25;;;;;;;4.80;4.20;;;10.60;99.90;;;;;;12576794;28;20107;-81
2024/03/15 22:03:28;;;;;;;5.28;3.92;;;10.60;99.90;;;;;;12576554;28;20485;-80
2024/03/15 22:09:30;;;;;;;7.18;4.57;;;10.50;99.90;;;;;;12590844;28;20099;-79
2024/03/15 22:15:32;;;;;;;7.90;3.97;;;10.50;99.90;;;;;;12578722;28;20064;-79
2024/03/15 22:21:34;;;;;;;6.65;4.20;;;10.50;99.90;;;;;;12580710;28;20044;-79
2024/03/15 22:27:36;;;;;;;6.07;4.40;;;10.50;99.90;;;;;;12559923;28;20059;-82
2024/03/15 22:33:38;;;;;;;5.68;4.53;;;10.50;99.90;;;;;;12576912;28;20055;-80
2024/03/15 22:39:44;;;;;;;5.82;4.40;;;10.50;99.90;;;;;;12582461;28;20044;-79
2024/03/15 22:45:49;;;;;;;8.40;4.75;;;10.40;99.90;;;;;;12581338;28;20540;-80
2024/03/15 22:51:51;;;;;;;7.57;4.28;;;10.30;99.90;;;;;;12578184;28;20226;-81
2024/03/15 22:57:53;;;;;;;9.60;4.30;;;10.40;99.90;;;;;;12582594;28;20519;-80
2024/03/15 23:03:57;;;;;;;6.00;4.05;;;10.30;99.90;;;;;;12572432;28;20056;-80
2024/03/15 23:09:59;;;;;;;9.75;4.47;;;10.30;99.90;;;;;;12591352;28;20044;-79
2024/03/15 23:16:03;;;;;;;6.85;4.15;;;10.40;99.90;;;;;;12578949;28;20044;-80
2024/03/15 23:22:05;;;;;;;7.32;4.47;;;10.50;99.90;;;;;;12595933;28;20048;-80
2024/03/15 23:28:09;;;;;;;7.70;3.95;;;10.40;99.90;;;;;;12600291;28;20063;-80
2024/03/15 23:34:11;;;;;;;4.70;4.10;;;10.40;99.90;;;;;;12572579;28;20045;-83
2024/03/15 23:40:14;;;;;;;10.32;4.63;;;10.40;99.90;;;;;;12587707;28;20464;-82
2024/03/15 23:46:16;;;;;;;6.53;4.33;;;10.50;99.90;;;;;;12573043;28;20496;-87
2024/03/15 23:52:18;;;;;;;6.75;4.65;;;10.50;99.90;;;;;;12577412;28;20048;-87
2024/03/15 23:58:21;;;;;;;6.15;4.40;;;10.60;99.90;;;;;;12570330;28;20091;-86
